Time;durP1;ratioP1;P1;durP2;ratioP2;P2;SDS_P1;SDS_P2;PMS_P1;PMS_P2;Temp;Humidity;BMP_temperature;BMP_pressure;BME280_temperature;BME280_humidity;BME280_pressure;Samples;Min_cycle;Max_cycle;Signal;HPM_P1;HPM_P2
2023/08/24 00:00:41;;;;;;;7.83;7.20;;;20.90;99.90;;;;;;5131758;27;20955;-62
2023/08/24 00:03:08;;;;;;;9.37;8.57;;;20.90;99.90;;;;;;5134050;27;20757;-63
2023/08/24 00:05:38;;;;;;;7.73;7.20;;;20.90;99.90;;;;;;5124725;27;20436;-62
2023/08/24 00:08:08;;;;;;;7.93;7.43;;;20.90;99.90;;;;;;5123353;27;20416;-62
2023/08/24 00:10:34;;;;;;;7.77;7.10;;;20.90;99.90;;;;;;5132417;27;20511;-62
2023/08/24 00:13:01;;;;;;;8.80;8.00;;;20.80;99.90;;;;;;5112486;27;20410;-62
2023/08/24 00:15:26;;;;;;;7.90;7.30;;;20.70;99.90;;;;;;5118245;27;20880;-62
2023/08/24 00:17:52;;;;;;;7.70;7.10;;;20.70;99.90;;;;;;5131376;27;20400;-62
2023/08/24 00:20:19;;;;;;;8.13;7.40;;;20.70;99.90;;;;;;5133540;27;20198;-62
2023/08/24 00:22:46;;;;;;;8.40;7.63;;;20.70;99.90;;;;;;5131359;27;20178;-62
2023/08/24 00:25:12;;;;;;;9.43;8.50;;;20.70;99.90;;;;;;5130819;27;20409;-62
2023/08/24 00:27:38;;;;;;;10.10;9.13;;;20.70;99.90;;;;;;5133839;27;20487;-62
2023/08/24 00:30:06;;;;;;;9.00;8.30;;;20.70;99.90;;;;;;5131547;27;20431;-63
2023/08/24 00:32:34;;;;;;;9.20;8.43;;;20.70;99.90;;;;;;5131632;27;20464;-62
2023/08/24 00:35:01;;;;;;;11.40;7.43;;;20.70;99.90;;;;;;5116962;27;20887;-61
2023/08/24 00:37:28;;;;;;;12.10;8.40;;;20.70;99.90;;;;;;5133474;27;20428;-62
2023/08/24 00:39:54;;;;;;;8.33;7.73;;;20.70;99.90;;;;;;5130803;27;20931;-62
2023/08/24 00:42:22;;;;;;;8.37;7.57;;;20.60;99.90;;;;;;5133642;27;20400;-62
2023/08/24 00:44:48;;;;;;;8.30;7.43;;;20.60;99.90;;;;;;5131867;28;20443;-62
2023/08/24 00:47:16;;;;;;;8.57;7.73;;;20.60;99.90;;;;;;5131591;28;20421;-62
2023/08/24 00:49:41;;;;;;;12.23;7.53;;;20.60;99.90;;;;;;5119846;28;20454;-63
2023/08/24 00:52:08;;;;;;;8.27;7.57;;;20.60;99.90;;;;;;5133675;27;20450;-64
2023/08/24 00:54:35;;;;;;;8.73;7.83;;;20.50;99.90;;;;;;5120968;28;20206;-63
2023/08/24 00:57:01;;;;;;;8.50;7.90;;;20.40;99.90;;;;;;5108963;28;20715;-62
2023/08/24 00:59:27;;;;;;;7.33;6.87;;;20.50;99.90;;;;;;5133602;28;20460;-62
2023/08/24 01:01:54;;;;;;;8.27;7.63;;;20.50;99.90;;;;;;5130776;28;20496;-62
2023/08/24 01:04:20;;;;;;;7.63;7.13;;;20.40;99.90;;;;;;5130079;28;20186;-62
2023/08/24 01:06:46;;;;;;;8.13;7.53;;;20.40;99.90;;;;;;5133172;28;20401;-62
2023/08/24 01:09:12;;;;;;;8.07;7.37;;;20.40;99.90;;;;;;5131458;28;20428;-63
2023/08/24 01:11:49;;;;;;;8.10;7.43;;;20.40;99.90;;;;;;5126226;28;20178;-62
2023/08/24 01:14:30;;;;;;;8.83;8.13;;;20.40;99.90;;;;;;5132109;28;20225;-61
2023/08/24 01:16:59;;;;;;;8.30;7.60;;;20.40;99.90;;;;;;5112209;28;20783;-64
2023/08/24 01:19:35;;;;;;;8.43;7.73;;;20.40;99.90;;;;;;5110049;28;20422;-62
2023/08/24 01:22:05;;;;;;;8.87;8.17;;;20.40;99.90;;;;;;5114952;28;20431;-62
2023/08/24 01:24:39;;;;;;;7.50;6.83;;;20.40;99.90;;;;;;5133226;28;20392;-63
2023/08/24 01:27:06;;;;;;;8.10;7.50;;;20.40;99.90;;;;;;5130705;27;20481;-62
2023/08/24 01:29:32;;;;;;;7.77;7.27;;;20.40;99.90;;;;;;5131256;27;20431;-62
2023/08/24 01:31:57;;;;;;;8.30;7.63;;;20.40;99.90;;;;;;5132698;27;20401;-62
2023/08/24 01:34:23;;;;;;;8.60;7.80;;;20.40;99.90;;;;;;5121231;27;20458;-62
2023/08/24 01:36:49;;;;;;;7.87;7.27;;;20.40;99.90;;;;;;5117725;27;20175;-62
2023/08/24 01:39:34;;;;;;;9.27;7.70;;;20.40;99.90;;;;;;5126492;27;20543;-63
2023/08/24 01:42:03;;;;;;;8.40;7.60;;;20.30;99.90;;;;;;5116895;27;20171;-63
2023/08/24 01:44:35;;;;;;;8.70;7.90;;;20.30;99.90;;;;;;5116312;27;20426;-63
2023/08/24 01:47:03;;;;;;;7.90;7.20;;;20.20;99.90;;;;;;5118631;27;20420;-62
2023/08/24 01:49:30;;;;;;;8.43;7.93;;;20.20;99.90;;;;;;5134812;27;20507;-62
2023/08/24 01:51:59;;;;;;;8.73;8.03;;;20.20;99.90;;;;;;5136122;27;20450;-62
2023/08/24 01:54:25;;;;;;;8.50;7.90;;;20.20;99.90;;;;;;5133981;27;20989;-63
2023/08/24 01:56:50;;;;;;;9.40;8.80;;;20.20;99.90;;;;;;5134224;27;20511;-63
2023/08/24 01:59:16;;;;;;;9.40;8.80;;;20.30;99.90;;;;;;5136652;27;20171;-62
2023/08/24 02:01:42;;;;;;;9.57;8.77;;;20.20;99.90;;;;;;5134578;27;20262;-62
2023/08/24 02:04:10;;;;;;;10.30;9.50;;;20.20;99.90;;;;;;5110300;27;20559;-62
2023/08/24 02:06:35;;;;;;;12.37;11.27;;;20.20;99.90;;;;;;5095605;28;20395;-62
2023/08/24 02:09:01;;;;;;;10.97;10.07;;;20.20;99.90;;;;;;5133080;27;20179;-62
2023/08/24 02:11:27;;;;;;;10.90;9.90;;;20.20;99.90;;;;;;5134655;27;20548;-62
2023/08/24 02:13:52;;;;;;;10.57;9.60;;;20.20;99.90;;;;;;5134049;27;20204;-62
2023/08/24 02:16:18;;;;;;;10.53;9.60;;;20.20;99.90;;;;;;5136634;27;20591;-62
2023/08/24 02:18:45;;;;;;;10.60;9.70;;;20.20;99.90;;;;;;5132226;27;20213;-62
2023/08/24 02:21:15;;;;;;;9.93;9.10;;;20.20;99.90;;;;;;5105880;27;20179;-63
2023/08/24 02:23:41;;;;;;;10.53;9.77;;;20.20;99.90;;;;;;5102144;27;20422;-63
2023/08/24 02:26:07;;;;;;;10.70;9.90;;;20.10;99.90;;;;;;5100052;27;20419;-63
2023/08/24 02:28:34;;;;;;;11.80;10.87;;;20.10;99.90;;;;;;5121071;27;20231;-63
2023/08/24 02:31:01;;;;;;;10.87;9.87;;;20.10;99.90;;;;;;5133447;27;20401;-62
2023/08/24 02:33:27;;;;;;;10.57;9.50;;;20.10;99.90;;;;;;5132869;27;20457;-61
2023/08/24 02:35:53;;;;;;;11.50;10.50;;;20.10;99.90;;;;;;5142847;27;20486;-62
2023/08/24 02:38:18;;;;;;;11.97;10.87;;;20.10;99.90;;;;;;5114560;27;20521;-61
2023/08/24 02:40:45;;;;;;;16.87;10.63;;;20.10;99.90;;;;;;5135876;27;20179;-62
2023/08/24 02:43:10;;;;;;;9.57;8.87;;;20.20;99.90;;;;;;5132766;27;20216;-62
2023/08/24 02:45:36;;;;;;;10.27;9.30;;;20.10;99.90;;;;;;5133358;27;20428;-62
2023/08/24 02:48:02;;;;;;;10.40;9.47;;;20.10;99.90;;;;;;5102360;27;20255;-62
2023/08/24 02:50:28;;;;;;;9.33;8.63;;;20.10;99.90;;;;;;5126612;27;20638;-62
2023/08/24 02:52:53;;;;;;;9.27;8.67;;;20.10;99.90;;;;;;5133017;27;20428;-62
2023/08/24 02:55:19;;;;;;;9.20;8.50;;;20.10;99.90;;;;;;5135498;27;20198;-62
2023/08/24 02:57:45;;;;;;;11.03;10.10;;;20.10;99.90;;;;;;5132874;27;20642;-62
2023/08/24 03:00:13;;;;;;;11.37;10.37;;;20.10;99.90;;;;;;5132901;27;20654;-62
2023/08/24 03:02:39;;;;;;;10.83;9.83;;;20.00;99.90;;;;;;5133415;27;20171;-62
2023/08/24 03:05:05;;;;;;;13.20;12.10;;;20.00;99.90;;;;;;5134750;27;20465;-62
2023/08/24 03:07:31;;;;;;;11.40;10.50;;;20.00;99.90;;;;;;5114354;27;20175;-62
2023/08/24 03:09:56;;;;;;;10.60;9.90;;;20.00;99.90;;;;;;5120757;27;20915;-62
2023/08/24 03:12:24;;;;;;;10.53;9.73;;;20.00;99.90;;;;;;5134884;27;20228;-62
2023/08/24 03:14:54;;;;;;;10.20;9.40;;;20.00;99.90;;;;;;5131363;27;20199;-62
2023/08/24 03:17:20;;;;;;;11.23;10.43;;;20.00;99.90;;;;;;5133250;27;20428;-62
2023/08/24 03:19:46;;;;;;;9.73;8.83;;;20.00;99.90;;;;;;5133008;27;20409;-62
2023/08/24 03:22:12;;;;;;;9.60;8.80;;;20.00;99.90;;;;;;5126283;27;21010;-62
2023/08/24 03:24:37;;;;;;;9.57;8.83;;;20.00;99.90;;;;;;5125210;27;20200;-62
2023/08/24 03:27:03;;;;;;;10.20;9.40;;;20.00;99.90;;;;;;5124335;27;20179;-62
2023/08/24 03:29:29;;;;;;;10.30;9.40;;;20.00;99.90;;;;;;5124840;27;20192;-62
2023/08/24 03:31:55;;;;;;;13.73;9.80;;;20.10;99.90;;;;;;5125512;27;20277;-62
2023/08/24 03:34:21;;;;;;;9.90;9.20;;;20.10;99.90;;;;;;5132894;27;20707;-62
2023/08/24 03:36:47;;;;;;;10.07;9.37;;;20.10;99.90;;;;;;5134410;27;20231;-63
2023/08/24 03:39:15;;;;;;;10.03;9.33;;;20.10;99.90;;;;;;5131836;27;20618;-62
2023/08/24 03:41:41;;;;;;;10.80;9.80;;;20.10;99.90;;;;;;5120131;27;20417;-62
2023/08/24 03:44:07;;;;;;;11.00;10.30;;;20.10;99.90;;;;;;5113754;28;20439;-62
2023/08/24 03:46:33;;;;;;;10.63;9.73;;;20.10;99.90;;;;;;5131933;27;20452;-63
2023/08/24 03:48:59;;;;;;;10.97;9.90;;;20.20;99.90;;;;;;5131912;27;20178;-62
2023/08/24 03:51:25;;;;;;;10.80;9.80;;;20.20;99.90;;;;;;5126891;27;20427;-62
2023/08/24 03:53:51;;;;;;;9.90;9.00;;;20.20;99.90;;;;;;5133105;27;20190;-62
2023/08/24 03:56:19;;;;;;;9.77;9.07;;;20.20;99.90;;;;;;5130778;27;20431;-62
2023/08/24 03:58:45;;;;;;;10.30;9.50;;;20.20;99.90;;;;;;5131109;27;20420;-62
2023/08/24 04:01:11;;;;;;;11.40;10.30;;;20.10;99.90;;;;;;5132455;27;20428;-62
2023/08/24 04:03:37;;;;;;;10.07;9.27;;;20.20;99.90;;;;;;5132533;27;20186;-62
2023/08/24 04:06:03;;;;;;;10.87;9.90;;;20.20;99.90;;;;;;5131356;27;20991;-62
2023/08/24 04:08:29;;;;;;;10.13;9.23;;;20.20;99.90;;;;;;5116013;27;20170;-62
2023/08/24 04:10:54;;;;;;;10.30;9.40;;;20.20;99.90;;;;;;5119310;27;20168;-62
2023/08/24 04:13:21;;;;;;;10.60;9.60;;;20.20;99.90;;;;;;5104008;27;20179;-62
2023/08/24 04:15:47;;;;;;;9.27;8.57;;;20.30;99.90;;;;;;5134152;27;20171;-62
2023/08/24 04:18:12;;;;;;;10.77;9.63;;;20.30;99.90;;;;;;5131401;27;20424;-62
2023/08/24 04:20:38;;;;;;;10.43;9.63;;;20.30;99.90;;;;;;5131950;27;20190;-62
2023/08/24 04:23:04;;;;;;;10.87;9.80;;;20.30;99.90;;;;;;5133317;27;20167;-62
2023/08/24 04:25:30;;;;;;;10.33;9.40;;;20.30;99.90;;;;;;5130637;27;20182;-62
2023/08/24 04:27:56;;;;;;;9.63;8.90;;;20.30;99.90;;;;;;5131357;27;20184;-62
2023/08/24 04:30:21;;;;;;;8.90;8.30;;;20.40;99.90;;;;;;5097123;28;20410;-62
2023/08/24 04:32:47;;;;;;;10.60;9.50;;;20.40;99.90;;;;;;5126733;27;20226;-63
2023/08/24 04:35:13;;;;;;;9.40;8.60;;;20.40;99.90;;;;;;5123606;27;20203;-62
2023/08/24 04:37:39;;;;;;;10.43;9.50;;;20.40;99.90;;;;;;5113193;28;20428;-62
2023/08/24 04:40:07;;;;;;;9.10;8.30;;;20.40;99.90;;;;;;5129098;27;20884;-62
2023/08/24 04:42:34;;;;;;;9.63;8.80;;;20.40;99.90;;;;;;5131719;27;20670;-62
2023/08/24 04:44:59;;;;;;;10.50;9.50;;;20.30;99.90;;;;;;5131126;27;20444;-62
2023/08/24 04:47:27;;;;;;;8.70;8.10;;;20.30;99.90;;;;;;5091414;28;20450;-62
2023/08/24 04:49:53;;;;;;;9.73;8.70;;;20.30;99.90;;;;;;5116057;28;20618;-62
2023/08/24 04:52:19;;;;;;;8.33;7.67;;;20.30;99.90;;;;;;5131021;28;20421;-62
2023/08/24 04:54:45;;;;;;;8.23;7.63;;;20.40;99.90;;;;;;5133518;28;20206;-62
2023/08/24 04:57:10;;;;;;;10.10;9.30;;;20.40;99.90;;;;;;5117476;28;20288;-61
2023/08/24 04:59:36;;;;;;;9.87;9.07;;;20.40;99.90;;;;;;5111122;28;20278;-62
2023/08/24 05:02:02;;;;;;;12.60;9.10;;;20.40;99.90;;;;;;5109960;28;20645;-62
2023/08/24 05:04:27;;;;;;;10.60;9.50;;;20.40;99.90;;;;;;5117570;28;20214;-62
2023/08/24 05:06:53;;;;;;;12.10;10.50;;;20.40;99.90;;;;;;5106048;28;20195;-62
2023/08/24 05:09:19;;;;;;;10.60;9.60;;;20.40;99.90;;;;;;5113319;27;20266;-63
2023/08/24 05:11:45;;;;;;;11.23;10.30;;;20.50;99.90;;;;;;5116197;27;20175;-63
2023/08/24 05:14:13;;;;;;;11.33;10.27;;;20.50;99.90;;;;;;5130645;27;20203;-62
2023/08/24 05:16:38;;;;;;;10.93;10.03;;;20.50;99.90;;;;;;5133515;27;20186;-62
2023/08/24 05:19:04;;;;;;;11.27;10.27;;;20.50;99.90;;;;;;5134898;27;20420;-62
2023/08/24 05:21:30;;;;;;;11.70;10.57;;;20.40;99.90;;;;;;5122337;27;20651;-62
2023/08/24 05:23:56;;;;;;;29.80;26.70;;;20.30;99.90;;;;;;5102718;27;20440;-62
2023/08/24 05:26:24;;;;;;;15.73;13.73;;;20.30;99.90;;;;;;5102490;27;20179;-62
2023/08/24 05:28:52;;;;;;;15.10;13.90;;;20.20;99.90;;;;;;5101843;28;20179;-62
2023/08/24 05:31:17;;;;;;;15.77;14.33;;;20.10;99.90;;;;;;5116699;27;20430;-62
2023/08/24 05:33:43;;;;;;;14.60;13.00;;;20.20;99.90;;;;;;5123700;27;20479;-62
2023/08/24 05:36:10;;;;;;;14.20;13.03;;;20.20;99.90;;;;;;5129716;27;20198;-62
2023/08/24 05:38:36;;;;;;;14.23;12.27;;;20.20;99.90;;;;;;5114587;27;20191;-62
2023/08/24 05:41:01;;;;;;;14.40;12.87;;;20.20;99.90;;;;;;5121293;27;20421;-62
2023/08/24 05:43:27;;;;;;;15.20;14.00;;;20.20;99.90;;;;;;5122059;27;20179;-62
2023/08/24 05:45:53;;;;;;;14.60;13.20;;;20.20;99.90;;;;;;5134199;27;20258;-64
2023/08/24 05:48:19;;;;;;;13.57;12.37;;;20.30;99.90;;;;;;5123059;27;20248;-62
2023/08/24 05:50:45;;;;;;;13.23;12.13;;;20.30;99.90;;;;;;5120964;27;20179;-61
2023/08/24 05:53:11;;;;;;;13.77;12.50;;;20.40;99.90;;;;;;5121749;27;20176;-63
2023/08/24 05:55:38;;;;;;;13.47;12.37;;;20.40;99.90;;;;;;5099412;27;20508;-60
2023/08/24 05:58:04;;;;;;;13.50;12.30;;;20.40;99.90;;;;;;5108035;27;20426;-62
2023/08/24 06:00:29;;;;;;;14.07;12.80;;;20.40;99.90;;;;;;5108409;27;20465;-62
2023/08/24 06:02:55;;;;;;;13.27;12.17;;;20.50;99.90;;;;;;5122364;27;20821;-63
2023/08/24 06:05:21;;;;;;;13.83;12.63;;;20.60;99.90;;;;;;5133423;27;20690;-62
2023/08/24 06:07:48;;;;;;;14.37;13.07;;;20.70;99.90;;;;;;5115957;28;20175;-63
2023/08/24 06:10:14;;;;;;;13.60;12.37;;;20.90;99.90;;;;;;5125135;27;20842;-62
2023/08/24 06:12:40;;;;;;;13.20;12.10;;;21.10;99.90;;;;;;5134563;27;20542;-63
2023/08/24 06:15:09;;;;;;;18.70;16.97;;;21.30;99.90;;;;;;5135639;27;20556;-62
2023/08/24 06:17:35;;;;;;;17.67;15.90;;;21.50;99.90;;;;;;5118846;27;20650;-63
2023/08/24 06:20:03;;;;;;;14.77;13.47;;;21.60;99.90;;;;;;5119160;27;20505;-62
2023/08/24 06:22:29;;;;;;;13.23;12.20;;;21.80;99.90;;;;;;5135173;27;20569;-65
2023/08/24 06:24:59;;;;;;;12.73;11.63;;;21.90;99.90;;;;;;5132950;27;20890;-63
2023/08/24 06:27:25;;;;;;;13.03;11.77;;;22.00;99.90;;;;;;5131006;27;20635;-62
2023/08/24 06:29:51;;;;;;;12.47;11.37;;;22.10;99.90;;;;;;5136096;27;20395;-63
2023/08/24 06:32:16;;;;;;;13.20;12.10;;;22.20;99.90;;;;;;5128324;27;20812;-63
2023/08/24 06:34:42;;;;;;;11.63;10.53;;;22.20;99.90;;;;;;5121972;27;20199;-63
2023/08/24 06:37:08;;;;;;;13.20;11.97;;;22.40;99.90;;;;;;5115852;28;20183;-62
2023/08/24 06:39:34;;;;;;;14.63;13.23;;;22.50;99.90;;;;;;5124453;27;20191;-62
2023/08/24 06:41:59;;;;;;;15.63;14.23;;;22.60;99.90;;;;;;5111484;27;20233;-63
2023/08/24 06:44:25;;;;;;;16.53;11.93;;;22.70;99.90;;;;;;5101103;28;20176;-64
2023/08/24 06:46:51;;;;;;;50.93;37.13;;;22.70;99.90;;;;;;5109793;27;20212;-66
2023/08/24 06:49:16;;;;;;;33.53;27.83;;;22.80;99.90;;;;;;5093824;28;20694;-65
2023/08/24 06:51:42;;;;;;;22.47;19.40;;;22.90;99.90;;;;;;5114834;28;20197;-66
2023/08/24 06:54:08;;;;;;;27.60;19.13;;;23.10;99.90;;;;;;5113639;27;20737;-66
2023/08/24 06:56:33;;;;;;;14.30;13.10;;;23.20;99.90;;;;;;5117249;27;20175;-63
2023/08/24 06:58:59;;;;;;;17.77;15.87;;;23.30;99.90;;;;;;5107650;27;20241;-65
2023/08/24 07:01:25;;;;;;;15.53;14.13;;;23.30;99.90;;;;;;5104914;27;20211;-66
2023/08/24 07:03:51;;;;;;;14.53;13.30;;;23.30;99.90;;;;;;5104396;27;20864;-65
2023/08/24 07:06:17;;;;;;;15.10;13.70;;;23.40;99.90;;;;;;5130495;27;20183;-66
2023/08/24 07:08:43;;;;;;;16.50;14.67;;;23.30;99.90;;;;;;5119624;27;20438;-65
2023/08/24 07:11:09;;;;;;;17.77;15.83;;;23.30;99.90;;;;;;5131987;27;20256;-65
2023/08/24 07:13:34;;;;;;;13.33;12.07;;;23.40;99.90;;;;;;5135053;27;20200;-66
2023/08/24 07:16:02;;;;;;;16.07;14.37;;;23.50;99.90;;;;;;5133069;27;20210;-66
2023/08/24 07:18:28;;;;;;;14.13;12.90;;;23.50;99.90;;;;;;5115317;27;20626;-65
2023/08/24 07:20:54;;;;;;;15.90;13.60;;;23.60;99.90;;;;;;5119043;27;20434;-66
2023/08/24 07:23:20;;;;;;;15.77;14.37;;;23.70;99.90;;;;;;5128974;27;20515;-66
2023/08/24 07:25:45;;;;;;;15.57;14.17;;;23.80;99.90;;;;;;5132986;27;20224;-66
2023/08/24 07:28:11;;;;;;;14.37;13.27;;;23.80;99.90;;;;;;5123545;27;20198;-65
2023/08/24 07:30:37;;;;;;;15.33;13.87;;;23.90;99.90;;;;;;5116696;27;20171;-65
2023/08/24 07:33:03;;;;;;;13.13;11.87;;;23.90;99.90;;;;;;5133318;27;20646;-66
2023/08/24 07:35:29;;;;;;;13.67;12.23;;;23.90;99.90;;;;;;5132147;27;20226;-66
2023/08/24 07:37:55;;;;;;;13.80;12.30;;;24.10;99.90;;;;;;5131265;27;22182;-66
2023/08/24 07:40:21;;;;;;;12.17;11.13;;;24.10;99.90;;;;;;5108872;27;20176;-67
2023/08/24 07:42:50;;;;;;;15.40;12.77;;;24.20;99.90;;;;;;5110945;27;20496;-66
2023/08/24 07:45:17;;;;;;;9.40;8.07;;;24.30;99.90;;;;;;5134013;27;20162;-65
2023/08/24 07:47:43;;;;;;;8.93;8.17;;;24.30;99.90;;;;;;5132811;27;20511;-66
2023/08/24 07:50:11;;;;;;;8.53;7.30;;;24.20;99.90;;;;;;5121171;27;20480;-64
2023/08/24 07:52:40;;;;;;;8.80;7.30;;;24.30;99.90;;;;;;5119324;27;20439;-65
2023/08/24 07:55:07;;;;;;;7.40;6.90;;;24.20;99.90;;;;;;5131739;27;20505;-62
2023/08/24 07:57:37;;;;;;;8.50;7.70;;;24.10;99.90;;;;;;5129714;27;20775;-65
2023/08/24 08:00:09;;;;;;;7.43;6.87;;;24.10;99.90;;;;;;5132407;27;20455;-65
2023/08/24 08:02:37;;;;;;;8.00;7.40;;;24.20;99.90;;;;;;5132595;27;20420;-67
2023/08/24 08:05:03;;;;;;;7.87;7.27;;;24.20;99.90;;;;;;5094635;27;20434;-65
2023/08/24 08:07:29;;;;;;;7.63;6.93;;;24.10;99.90;;;;;;5117046;27;20416;-66
2023/08/24 08:09:56;;;;;;;8.40;7.80;;;24.20;99.90;;;;;;5105973;27;20413;-65
2023/08/24 08:12:22;;;;;;;9.37;8.77;;;24.30;99.90;;;;;;5106111;27;20172;-68
2023/08/24 08:14:47;;;;;;;17.77;15.97;;;24.20;99.90;;;;;;5113450;27;20518;-69
2023/08/24 08:17:13;;;;;;;10.07;8.93;;;24.20;99.90;;;;;;5093055;28;20326;-69
2023/08/24 08:19:39;;;;;;;11.50;10.50;;;24.30;99.90;;;;;;5113200;27;20178;-69
2023/08/24 08:22:05;;;;;;;8.83;8.10;;;24.40;99.90;;;;;;5127335;27;20171;-69
2023/08/24 08:24:31;;;;;;;9.43;8.70;;;24.40;99.90;;;;;;5114264;27;20173;-69
2023/08/24 08:26:56;;;;;;;9.03;8.20;;;24.50;99.90;;;;;;5125740;27;20168;-69
2023/08/24 08:29:22;;;;;;;8.80;8.20;;;24.60;99.90;;;;;;5125753;27;20586;-68
2023/08/24 08:31:48;;;;;;;8.37;7.73;;;24.70;99.90;;;;;;5100292;27;20203;-65
2023/08/24 08:34:14;;;;;;;14.37;12.70;;;24.80;99.90;;;;;;5093962;27;20466;-68
2023/08/24 08:36:40;;;;;;;11.83;10.93;;;24.90;99.90;;;;;;5110062;27;20188;-68
2023/08/24 08:39:05;;;;;;;7.80;7.20;;;25.00;99.90;;;;;;5105827;27;20256;-70
2023/08/24 08:41:38;;;;;;;7.50;6.90;;;25.10;99.90;;;;;;5108178;28;20562;-68
2023/08/24 08:44:06;;;;;;;8.87;8.20;;;25.20;99.90;;;;;;5131155;27;20265;-68
2023/08/24 08:46:35;;;;;;;9.57;8.80;;;25.30;99.90;;;;;;5130875;27;20839;-68
2023/08/24 08:49:02;;;;;;;8.40;7.63;;;25.30;99.90;;;;;;5126871;27;20414;-68
2023/08/24 08:51:29;;;;;;;39.97;33.63;;;25.40;99.90;;;;;;5118541;28;20418;-68
2023/08/24 08:53:55;;;;;;;296.70;251.00;;;25.50;99.90;;;;;;5121815;28;20452;-69
2023/08/24 08:56:22;;;;;;;59.63;53.20;;;25.60;99.90;;;;;;5104763;27;20433;-68
2023/08/24 08:58:49;;;;;;;9.70;9.00;;;25.70;99.90;;;;;;5110966;28;20184;-68
2023/08/24 09:01:15;;;;;;;9.07;8.30;;;25.70;99.90;;;;;;5120595;28;20963;-67
2023/08/24 09:03:42;;;;;;;7.77;7.17;;;25.70;99.90;;;;;;5113194;28;20473;-68
2023/08/24 09:06:09;;;;;;;8.27;7.70;;;25.80;99.90;;;;;;5111042;28;20429;-68
2023/08/24 09:08:35;;;;;;;8.67;7.77;;;25.90;99.90;;;;;;5111018;28;20566;-68
2023/08/24 09:11:00;;;;;;;7.93;7.33;;;25.90;99.90;;;;;;5120575;28;20515;-68
2023/08/24 09:13:26;;;;;;;8.37;7.60;;;25.90;99.90;;;;;;5132836;28;20210;-68
2023/08/24 09:15:55;;;;;;;7.37;6.80;;;25.90;99.90;;;;;;5130729;28;20179;-68
2023/08/24 09:18:22;;;;;;;8.30;7.60;;;26.00;99.90;;;;;;5126110;28;20175;-68
2023/08/24 09:20:47;;;;;;;7.37;6.87;;;26.10;99.90;;;;;;5133017;28;20888;-68
2023/08/24 09:23:20;;;;;;;7.10;6.60;;;26.20;99.90;;;;;;5126217;28;20433;-68
2023/08/24 09:25:47;;;;;;;7.63;6.93;;;26.30;99.90;;;;;;5127821;28;20179;-67
2023/08/24 09:28:13;;;;;;;7.70;7.20;;;26.40;99.90;;;;;;5132668;28;20939;-68
2023/08/24 09:30:39;;;;;;;7.20;6.70;;;26.60;99.90;;;;;;5130927;28;20523;-68
2023/08/24 09:33:10;;;;;;;7.50;6.80;;;26.70;99.90;;;;;;5133032;28;20547;-68
2023/08/24 09:35:36;;;;;;;7.07;6.53;;;26.80;99.90;;;;;;5130626;28;20466;-68
2023/08/24 09:38:19;;;;;;;8.30;7.50;;;27.00;99.90;;;;;;5131309;28;20827;-68
2023/08/24 09:40:49;;;;;;;7.47;6.97;;;27.00;99.90;;;;;;5129650;28;20420;-66
2023/08/24 09:43:14;;;;;;;6.70;6.20;;;27.10;99.90;;;;;;5111488;28;20443;-65
2023/08/24 09:45:54;;;;;;;8.03;7.40;;;27.20;99.90;;;;;;5109975;28;20421;-67
2023/08/24 09:48:21;;;;;;;6.87;6.37;;;27.30;99.90;;;;;;5112357;28;20175;-68
2023/08/24 09:50:49;;;;;;;6.87;6.37;;;27.50;99.90;;;;;;5113098;28;20420;-67
2023/08/24 09:53:20;;;;;;;8.63;7.77;;;27.60;99.90;;;;;;5112338;28;20412;-68
2023/08/24 09:55:55;;;;;;;6.97;6.30;;;27.80;99.90;;;;;;5115907;27;20454;-69
2023/08/24 09:58:24;;;;;;;10.03;7.00;;;27.90;99.90;;;;;;5113766;27;20421;-68
2023/08/24 10:00:51;;;;;;;7.77;7.30;;;28.00;99.90;;;;;;5116892;27;20402;-69
2023/08/24 10:03:22;;;;;;;7.77;7.17;;;28.10;99.90;;;;;;5130167;22;20476;-68
2023/08/24 10:06:00;;;;;;;7.90;6.90;;;28.30;99.90;;;;;;5034902;28;20428;-69
2023/08/24 10:08:39;;;;;;;7.00;6.60;;;28.40;99.90;;;;;;5031609;28;20821;-69
2023/08/24 10:11:06;;;;;;;8.47;7.63;;;28.40;99.90;;;;;;5031764;28;20421;-69
2023/08/24 10:13:44;;;;;;;7.03;6.53;;;28.50;99.90;;;;;;5034642;28;20454;-69
2023/08/24 10:16:12;;;;;;;6.73;6.20;;;28.60;99.90;;;;;;5033036;28;20432;-69
2023/08/24 10:18:40;;;;;;;7.87;7.23;;;28.60;99.90;;;;;;5030719;28;20425;-69
2023/08/24 10:21:07;;;;;;;7.43;6.87;;;28.60;99.90;;;;;;5032327;28;20496;-69
2023/08/24 10:23:35;;;;;;;22.20;20.20;;;28.70;99.90;;;;;;5030840;28;20413;-68
2023/08/24 10:26:03;;;;;;;17.70;16.00;;;28.80;99.90;;;;;;5034360;28;20432;-69
2023/08/24 10:28:29;;;;;;;25.63;21.97;;;28.90;99.90;;;;;;5032497;28;20440;-68
2023/08/24 10:30:59;;;;;;;17.53;16.13;;;29.00;99.90;;;;;;5034414;28;20428;-69
2023/08/24 10:33:26;;;;;;;8.87;7.60;;;29.00;99.90;;;;;;5033828;28;20440;-69
2023/08/24 10:35:52;;;;;;;7.53;7.00;;;29.10;99.80;;;;;;5033372;28;20503;-68
2023/08/24 10:38:29;;;;;;;7.07;6.57;;;29.10;99.90;;;;;;5034433;28;20546;-62
2023/08/24 10:41:03;;;;;;;6.97;6.40;;;29.10;99.20;;;;;;5032990;28;20425;-68
2023/08/24 10:43:28;;;;;;;9.43;8.73;;;29.10;99.00;;;;;;5033039;28;20389;-68
2023/08/24 10:45:59;;;;;;;7.40;6.57;;;29.10;99.90;;;;;;5034330;28;20417;-69
2023/08/24 10:48:44;;;;;;;7.47;7.07;;;29.10;99.80;;;;;;5032676;28;20645;-69
2023/08/24 10:51:21;;;;;;;7.03;6.43;;;29.10;99.90;;;;;;5034094;28;20810;-68
2023/08/24 10:54:00;;;;;;;7.90;7.20;;;29.10;99.90;;;;;;5040483;28;20377;-69
2023/08/24 10:56:40;;;;;;;6.63;6.13;;;29.10;98.70;;;;;;5022937;28;20855;-68
2023/08/24 10:59:20;;;;;;;9.50;8.80;;;29.10;99.90;;;;;;5042685;28;20421;-69
2023/08/24 11:01:53;;;;;;;7.80;7.20;;;29.10;99.90;;;;;;5051847;28;20432;-68
2023/08/24 11:04:21;;;;;;;8.57;7.97;;;29.10;97.70;;;;;;5033816;28;20472;-69
2023/08/24 11:06:55;;;;;;;6.47;6.03;;;29.00;98.10;;;;;;5033577;28;20779;-69
2023/08/24 11:09:22;;;;;;;6.60;6.10;;;29.00;95.80;;;;;;5033125;28;20425;-69
2023/08/24 11:12:03;;;;;;;6.47;6.07;;;29.00;97.00;;;;;;5034242;28;20783;-65
2023/08/24 11:14:33;;;;;;;6.87;6.47;;;29.00;99.90;;;;;;5031871;28;20847;-65
2023/08/24 11:17:16;;;;;;;7.67;7.00;;;29.00;96.50;;;;;;5033896;28;20453;-66
2023/08/24 11:19:51;;;;;;;7.77;7.20;;;28.80;94.90;;;;;;5032883;28;20452;-66
2023/08/24 11:22:17;;;;;;;7.53;6.83;;;28.80;96.10;;;;;;5033597;28;20482;-65
2023/08/24 11:24:44;;;;;;;7.37;6.90;;;28.90;97.40;;;;;;5033032;28;20529;-65
2023/08/24 11:27:10;;;;;;;90.60;81.20;;;29.00;99.70;;;;;;5033875;28;20409;-65
2023/08/24 11:29:35;;;;;;;228.17;207.43;;;29.10;99.50;;;;;;5032568;28;20424;-66
2023/08/24 11:32:02;;;;;;;51.47;46.43;;;29.10;98.00;;;;;;5033591;28;20189;-65
2023/08/24 11:34:29;;;;;;;11.00;10.20;;;29.20;97.60;;;;;;5032617;28;20553;-65
2023/08/24 11:36:54;;;;;;;7.43;6.93;;;29.20;97.50;;;;;;5032642;28;20764;-69
2023/08/24 11:39:23;;;;;;;7.10;6.60;;;29.30;97.60;;;;;;5031872;28;20417;-68
2023/08/24 11:42:08;;;;;;;7.83;6.60;;;29.30;96.20;;;;;;5031580;28;20623;-69
2023/08/24 11:44:48;;;;;;;6.63;6.17;;;29.30;95.60;;;;;;5029533;28;20420;-69
2023/08/24 11:47:15;;;;;;;5.87;5.57;;;29.30;96.70;;;;;;5033108;28;20452;-69
2023/08/24 11:49:41;;;;;;;7.73;5.80;;;29.30;96.30;;;;;;5032110;28;20816;-69
2023/08/24 11:52:08;;;;;;;6.10;5.70;;;29.20;93.10;;;;;;5033049;28;20928;-69
2023/08/24 11:54:38;;;;;;;7.87;7.27;;;29.00;92.80;;;;;;5031242;28;20852;-69
2023/08/24 11:57:06;;;;;;;5.47;5.17;;;29.00;92.80;;;;;;5032990;28;20471;-69
2023/08/24 11:59:32;;;;;;;6.33;5.93;;;29.00;93.30;;;;;;5031903;28;20432;-69
2023/08/24 12:01:58;;;;;;;5.47;5.07;;;29.00;93.60;;;;;;5033976;28;20479;-69
2023/08/24 12:04:24;;;;;;;6.77;6.27;;;29.00;93.40;;;;;;5031946;28;20552;-69
2023/08/24 12:06:50;;;;;;;6.03;5.73;;;28.90;93.40;;;;;;5033677;28;20937;-69
2023/08/24 12:09:17;;;;;;;5.40;5.10;;;28.70;93.00;;;;;;5032347;28;20214;-69
2023/08/24 12:11:42;;;;;;;6.87;6.30;;;28.60;92.50;;;;;;5032277;28;20201;-68
2023/08/24 12:14:17;;;;;;;6.17;5.80;;;28.50;93.40;;;;;;5033420;28;20480;-69
2023/08/24 12:16:42;;;;;;;6.37;5.87;;;28.50;95.60;;;;;;5031374;28;20186;-69
2023/08/24 12:19:09;;;;;;;7.50;6.80;;;28.60;95.70;;;;;;5032446;28;20900;-69
2023/08/24 12:21:34;;;;;;;5.90;5.50;;;28.60;96.20;;;;;;5032434;28;20162;-67
2023/08/24 12:24:05;;;;;;;5.80;5.40;;;28.60;94.80;;;;;;5032303;28;20915;-69
2023/08/24 12:26:35;;;;;;;6.77;6.20;;;28.70;95.10;;;;;;5031257;28;20187;-69
2023/08/24 12:29:02;;;;;;;5.53;5.00;;;28.70;95.40;;;;;;5031918;28;20448;-69
2023/08/24 12:31:29;;;;;;;4.90;4.60;;;28.80;95.10;;;;;;5030406;28;20768;-68
2023/08/24 12:34:14;;;;;;;4.93;4.53;;;28.80;94.40;;;;;;5031689;28;20510;-69
2023/08/24 12:36:43;;;;;;;5.87;5.37;;;28.80;92.80;;;;;;5030734;28;20526;-69
2023/08/24 12:39:12;;;;;;;5.67;5.00;;;28.80;93.30;;;;;;5031759;28;20419;-69